Time,TemperatureF,DewpointF,PressureIn,WindDirection,WindDirectionDegrees,WindSpeedMPH,WindSpeedGustMPH,Humidity,HourlyPrecipIn,Conditions,Clouds,dailyrainin,SoftwareType,DateUTC
2013-11-23 00:01:00,50.9,50.5,29.78,WSW,248,4.0,4.0,99,0.00,,,0.15,meteohub,2013-11-23 05:01:00,
2013-11-23 00:02:00,50.9,50.5,29.78,SW,225,2.0,4.0,99,0.00,,,0.15,meteohub,2013-11-23 05:02:00,
2013-11-23 00:07:00,50.9,50.5,29.78,NW,315,2.0,4.0,99,0.00,,,0.00,meteohub,2013-11-23 05:07:00,
2013-11-23 00:12:00,50.7,50.4,29.78,West,270,2.0,4.0,99,0.00,,,0.00,meteohub,2013-11-23 05:12:00,
2013-11-23 00:17:00,50.7,50.4,29.78,NE,45,2.0,4.0,99,0.00,,,0.00,meteohub,2013-11-23 05:17:00,
2013-11-23 00:22:00,50.9,50.5,29.78,SE,135,0.0,4.0,99,0.00,,,0.00,meteohub,2013-11-23 05:22:00,
2013-11-23 00:27:00,50.7,50.4,29.78,North,0,2.0,6.0,99,0.00,,,0.00,meteohub,2013-11-23 05:27:00,
2013-11-23 00:32:00,50.5,50.2,29.78,NW,315,2.0,6.0,99,0.00,,,0.00,meteohub,2013-11-23 05:32:00,
2013-11-23 00:37:00,50.5,50.2,29.78,West,270,4.0,6.0,99,0.00,,,0.00,meteohub,2013-11-23 05:37:00,
2013-11-23 00:42:00,50.7,50.4,29.78,North,0,2.0,7.0,99,0.00,,,0.00,meteohub,2013-11-23 05:42:00,
2013-11-23 00:47:00,50.9,50.5,29.78,NW,315,4.0,7.0,99,0.00,,,0.00,meteohub,2013-11-23 05:47:00,
2013-11-23 00:52:00,50.9,50.5,29.78,North,0,4.0,8.0,99,0.00,,,0.00,meteohub,2013-11-23 05:52:00,
2013-11-23 00:57:00,50.7,50.4,29.78,NW,315,4.0,8.0,99,0.00,,,0.00,meteohub,2013-11-23 05:57:00,
2013-11-23 01:02:00,50.9,50.5,29.78,NW,315,9.0,9.0,99,0.00,,,0.00,meteohub,2013-11-23 06:02:00,
2013-11-23 01:07:00,50.9,50.5,29.78,SW,225,4.0,9.0,99,0.00,,,0.00,meteohub,2013-11-23 06:07:00,
2013-11-23 01:12:00,50.7,50.4,29.78,NW,315,4.0,9.0,99,0.00,,,0.00,meteohub,2013-11-23 06:12:00,
2013-11-23 01:17:00,50.7,50.4,29.78,North,0,5.0,9.0,99,0.00,,,0.00,meteohub,2013-11-23 06:17:00,
2013-11-23 01:22:00,50.7,50.4,29.78,North,0,4.0,10.0,99,0.00,,,0.00,meteohub,2013-11-23 06:22:00,
2013-11-23 01:27:00,50.7,50.4,29.78,West,270,4.0,10.0,99,0.00,,,0.00,meteohub,2013-11-23 06:27:00,
2013-11-23 01:32:00,50.5,50.2,29.78,South,180,4.0,10.0,99,0.00,,,0.00,meteohub,2013-11-23 06:32:00,
2013-11-23 01:37:00,50.5,50.2,29.79,NE,45,7.0,7.0,99,0.00,,,0.00,meteohub,2013-11-23 06:37:00,
2013-11-23 01:42:00,50.5,50.2,29.79,NW,315,4.0,7.0,99,0.00,,,0.00,meteohub,2013-11-23 06:42:00,
2013-11-23 01:47:00,50.5,50.0,29.79,North,0,5.0,10.0,98,0.00,,,0.00,meteohub,2013-11-23 06:47:00,
2013-11-23 01:52:00,50.5,50.0,29.79,NW,315,3.0,10.0,98,0.00,,,0.00,meteohub,2013-11-23 06:52:00,
2013-11-23 01:57:00,50.0,49.5,29.80,NW,315,4.0,10.0,98,0.00,,,0.00,meteohub,2013-11-23 06:57:00,
2013-11-23 02:02:00,50.0,49.5,29.79,NW,315,2.0,7.0,98,0.00,,,0.00,meteohub,2013-11-23 07:02:00,
2013-11-23 02:07:00,49.6,49.1,29.80,NE,45,7.0,7.0,98,0.00,,,0.00,meteohub,2013-11-23 07:07:00,
2013-11-23 02:12:00,49.3,48.7,29.80,North,0,5.0,7.0,98,0.00,,,0.00,meteohub,2013-11-23 07:12:00,
2013-11-23 02:17:00,49.3,48.7,29.80,SW,225,4.0,7.0,98,0.00,,,0.00,meteohub,2013-11-23 07:17:00,
2013-11-23 02:22:00,49.1,48.6,29.80,North,0,4.0,7.0,98,0.00,,,0.00,meteohub,2013-11-23 07:22:00,
2013-11-23 02:27:00,48.9,47.3,29.80,NW,315,8.0,9.0,94,0.00,,,0.00,meteohub,2013-11-23 07:27:00,
2013-11-23 02:32:00,48.9,46.9,29.81,NW,315,7.0,9.0,93,0.00,,,0.00,meteohub,2013-11-23 07:32:00,
2013-11-23 02:37:00,48.7,46.8,29.80,NW,315,4.0,9.0,93,0.00,,,0.00,meteohub,2013-11-23 07:37:00,
2013-11-23 02:42:00,48.4,46.2,29.81,NW,315,7.0,9.0,92,0.00,,,0.00,meteohub,2013-11-23 07:42:00,
2013-11-23 02:47:00,47.8,44.4,29.81,NW,315,10.0,10.0,88,0.00,,,0.00,meteohub,2013-11-23 07:47:00,
2013-11-23 02:52:00,47.7,45.0,29.81,North,0,6.0,10.0,90,0.00,,,0.00,meteohub,2013-11-23 07:52:00,
2013-11-23 02:57:00,47.3,43.9,29.80,NW,315,4.0,10.0,88,0.00,,,0.00,meteohub,2013-11-23 07:57:00,
2013-11-23 03:02:00,46.8,44.1,29.81,NW,315,4.0,10.0,90,0.00,,,0.00,meteohub,2013-11-23 08:02:00,
2013-11-23 03:07:00,46.4,43.3,29.81,North,0,6.0,6.0,89,0.00,,,0.00,meteohub,2013-11-23 08:07:00,
2013-11-23 03:12:00,46.4,43.3,29.81,North,0,6.0,7.0,89,0.00,,,0.00,meteohub,2013-11-23 08:12:00,
2013-11-23 03:17:00,46.4,43.3,29.80,North,0,6.0,7.0,89,0.00,,,0.00,meteohub,2013-11-23 08:17:00,
2013-11-23 03:22:00,45.9,42.4,29.81,NW,315,4.0,7.0,88,0.00,,,0.00,meteohub,2013-11-23 08:22:00,
2013-11-23 03:27:00,45.7,43.2,29.81,NW,315,5.0,11.0,91,0.00,,,0.00,meteohub,2013-11-23 08:27:00,
2013-11-23 03:32:00,45.5,42.4,29.81,NW,315,4.0,11.0,89,0.00,,,0.00,meteohub,2013-11-23 08:32:00,
2013-11-23 03:37:00,45.3,41.9,29.81,North,0,7.0,11.0,88,0.00,,,0.00,meteohub,2013-11-23 08:37:00,
2013-11-23 03:42:00,45.1,41.5,29.81,North,0,6.0,11.0,87,0.00,,,0.00,meteohub,2013-11-23 08:42:00,
2013-11-23 03:47:00,45.0,41.5,29.81,North,0,3.0,11.0,88,0.00,,,0.00,meteohub,2013-11-23 08:47:00,
2013-11-23 03:52:00,44.6,41.2,29.81,North,0,5.0,10.0,88,0.00,,,0.00,meteohub,2013-11-23 08:52:00,
2013-11-23 03:57:00,44.4,40.8,29.81,NW,315,4.0,11.0,87,0.00,,,0.00,meteohub,2013-11-23 08:57:00,
2013-11-23 04:02:00,44.2,40.6,29.82,NW,315,7.0,11.0,87,0.00,,,0.00,meteohub,2013-11-23 09:02:00,
2013-11-23 04:07:00,44.1,40.5,29.82,North,0,6.0,11.0,87,0.00,,,0.00,meteohub,2013-11-23 09:07:00,
2013-11-23 04:12:00,43.9,39.9,29.83,NW,315,4.0,8.0,86,0.00,,,0.00,meteohub,2013-11-23 09:12:00,
2013-11-23 04:18:00,43.7,39.6,29.83,NE,45,8.0,8.0,85,0.00,,,0.00,meteohub,2013-11-23 09:18:00,
2013-11-23 04:23:00,43.7,39.2,29.83,NW,315,4.0,8.0,84,0.00,,,0.00,meteohub,2013-11-23 09:23:00,
2013-11-23 04:28:00,43.3,39.2,29.83,NW,315,4.0,8.0,85,0.00,,,0.00,meteohub,2013-11-23 09:28:00,
2013-11-23 04:33:00,43.2,39.2,29.83,North,0,4.0,8.0,86,0.00,,,0.00,meteohub,2013-11-23 09:33:00,
2013-11-23 04:38:00,42.8,38.3,29.83,North,0,6.0,7.0,84,0.00,,,0.00,meteohub,2013-11-23 09:38:00,
2013-11-23 04:43:00,42.4,38.5,29.84,West,270,7.0,8.0,86,0.00,,,0.00,meteohub,2013-11-23 09:43:00,
2013-11-23 04:48:00,42.3,37.8,29.84,NW,315,5.0,8.0,84,0.00,,,0.00,meteohub,2013-11-23 09:48:00,
2013-11-23 04:53:00,42.3,37.2,29.84,NW,315,11.0,11.0,82,0.00,,,0.00,meteohub,2013-11-23 09:53:00,
2013-11-23 04:58:00,41.9,36.9,29.84,NW,315,5.0,8.0,82,0.00,,,0.00,meteohub,2013-11-23 09:58:00,
2013-11-23 05:03:00,41.7,36.9,29.83,North,0,4.0,11.0,83,0.00,,,0.00,meteohub,2013-11-23 10:03:00,
2013-11-23 05:08:00,41.5,37.0,29.84,WNW,293,4.0,11.0,84,0.00,,,0.00,meteohub,2013-11-23 10:08:00,
2013-11-23 05:13:00,41.2,36.7,29.84,North,0,5.0,10.0,84,0.00,,,0.00,meteohub,2013-11-23 10:13:00,
2013-11-23 05:18:00,40.8,36.7,29.84,South,180,10.0,10.0,85,0.00,,,0.00,meteohub,2013-11-23 10:18:00,
2013-11-23 05:23:00,40.8,36.3,29.85,NNW,338,6.0,7.0,84,0.00,,,0.00,meteohub,2013-11-23 10:23:00,
2013-11-23 05:28:00,40.6,36.5,29.85,NW,315,4.0,10.0,85,0.00,,,0.00,meteohub,2013-11-23 10:28:00,
2013-11-23 05:33:00,40.3,36.1,29.85,North,0,10.0,10.0,85,0.00,,,0.00,meteohub,2013-11-23 10:33:00,
2013-11-23 05:38:00,40.3,35.2,29.86,NW,315,15.0,15.0,82,0.00,,,0.00,meteohub,2013-11-23 10:38:00,
2013-11-23 05:43:00,40.1,35.4,29.86,North,0,7.0,15.0,83,0.00,,,0.00,meteohub,2013-11-23 10:43:00,
2013-11-23 05:48:00,39.9,35.2,29.86,WNW,293,12.0,15.0,83,0.00,,,0.00,meteohub,2013-11-23 10:48:00,
2013-11-23 05:53:00,39.7,35.2,29.86,North,0,5.0,15.0,84,0.00,,,0.00,meteohub,2013-11-23 10:53:00,
2013-11-23 05:58:00,39.2,35.4,29.87,West,270,4.0,15.0,86,0.00,,,0.00,meteohub,2013-11-23 10:58:00,
2013-11-23 06:03:00,39.2,34.7,29.87,NW,315,4.0,12.0,84,0.00,,,0.00,meteohub,2013-11-23 11:03:00,
2013-11-23 06:08:00,39.2,35.1,29.88,North,0,5.0,12.0,85,0.00,,,0.00,meteohub,2013-11-23 11:08:00,
2013-11-23 06:13:00,39.0,34.5,29.88,NW,315,6.0,10.0,84,0.00,,,0.00,meteohub,2013-11-23 11:13:00,
2013-11-23 06:18:00,38.8,34.7,29.88,NE,45,6.0,10.0,85,0.00,,,0.00,meteohub,2013-11-23 11:18:00,
2013-11-23 06:23:00,38.7,34.2,29.89,NW,315,7.0,10.0,84,0.00,,,0.00,meteohub,2013-11-23 11:23:00,
2013-11-23 06:28:00,38.7,34.2,29.88,North,0,4.0,10.0,84,0.00,,,0.00,meteohub,2013-11-23 11:28:00,
2013-11-23 06:33:00,38.5,33.4,29.89,NW,315,5.0,8.0,82,0.00,,,0.00,meteohub,2013-11-23 11:33:00,
2013-11-23 06:38:00,38.3,33.6,29.89,NW,315,4.0,8.0,83,0.00,,,0.00,meteohub,2013-11-23 11:38:00,
2013-11-23 06:43:00,38.1,33.4,29.89,NW,315,4.0,8.0,83,0.00,,,0.00,meteohub,2013-11-23 11:43:00,
2013-11-23 06:48:00,37.8,33.1,29.89,North,0,6.0,7.0,83,0.00,,,0.00,meteohub,2013-11-23 11:48:00,
2013-11-23 06:53:00,37.8,33.1,29.90,NW,315,5.0,7.0,83,0.00,,,0.00,meteohub,2013-11-23 11:53:00,
2013-11-23 06:58:00,37.6,32.9,29.90,North,0,5.0,7.0,83,0.00,,,0.00,meteohub,2013-11-23 11:58:00,
2013-11-23 07:03:00,37.4,33.3,29.90,NW,315,4.0,7.0,85,0.00,,,0.00,meteohub,2013-11-23 12:03:00,
2013-11-23 07:08:00,37.2,32.5,29.91,NW,315,5.0,7.0,83,0.00,,,0.00,meteohub,2013-11-23 12:08:00,
2013-11-23 07:13:00,37.2,32.5,29.90,NW,315,6.0,6.0,83,0.00,,,0.00,meteohub,2013-11-23 12:13:00,
2013-11-23 07:18:00,37.2,32.5,29.90,NW,315,4.0,6.0,83,0.00,,,0.00,meteohub,2013-11-23 12:18:00,
2013-11-23 07:23:00,37.2,32.5,29.90,North,0,4.0,6.0,83,0.00,,,0.00,meteohub,2013-11-23 12:23:00,
2013-11-23 07:28:00,36.9,32.7,29.91,NW,315,4.0,6.0,85,0.00,,,0.00,meteohub,2013-11-23 12:28:00,
2013-11-23 07:33:00,36.9,32.5,29.91,NW,315,4.0,6.0,84,0.00,,,0.00,meteohub,2013-11-23 12:33:00,
2013-11-23 07:38:00,37.2,32.0,29.91,North,0,3.0,6.0,81,0.00,,,0.00,meteohub,2013-11-23 12:38:00,
2013-11-23 07:43:00,37.4,31.8,29.91,NW,315,4.0,10.0,80,0.00,,,0.00,meteohub,2013-11-23 12:43:00,
2013-11-23 07:48:00,37.4,31.8,29.91,NW,315,4.0,10.0,80,0.00,,,0.00,meteohub,2013-11-23 12:48:00,
2013-11-23 07:53:00,38.1,32.5,29.91,West,270,4.0,10.0,80,0.00,,,0.00,meteohub,2013-11-23 12:53:00,
2013-11-23 07:58:00,38.8,32.9,29.91,NW,315,4.0,6.0,79,0.00,,,0.00,meteohub,2013-11-23 12:58:00,
2013-11-23 08:03:00,38.7,32.4,29.91,NW,315,5.0,6.0,78,0.00,,,0.00,meteohub,2013-11-23 13:03:00,
2013-11-23 08:08:00,38.8,32.0,29.91,NNW,338,6.0,6.0,76,0.00,,,0.00,meteohub,2013-11-23 13:08:00,
2013-11-23 08:13:00,39.4,32.5,29.92,NW,315,8.0,8.0,76,0.00,,,0.00,meteohub,2013-11-23 13:13:00,
2013-11-23 08:18:00,39.9,32.0,29.92,NW,315,8.0,8.0,73,0.00,,,0.00,meteohub,2013-11-23 13:18:00,
2013-11-23 08:23:00,39.7,32.2,29.92,NW,315,8.0,8.0,74,0.00,,,0.00,meteohub,2013-11-23 13:23:00,
2013-11-23 08:28:00,39.7,31.8,29.93,West,270,4.0,8.0,73,0.00,,,0.00,meteohub,2013-11-23 13:28:00,
2013-11-23 08:33:00,39.9,32.0,29.92,North,0,7.0,8.0,73,0.00,,,0.00,meteohub,2013-11-23 13:33:00,
2013-11-23 08:38:00,40.1,32.2,29.92,South,180,5.0,11.0,73,0.00,,,0.00,meteohub,2013-11-23 13:38:00,
2013-11-23 08:43:00,40.1,31.8,29.92,North,0,5.0,11.0,72,0.00,,,0.00,meteohub,2013-11-23 13:43:00,
2013-11-23 08:48:00,40.3,32.0,29.92,NW,315,4.0,11.0,72,0.00,,,0.00,meteohub,2013-11-23 13:48:00,
2013-11-23 08:53:00,41.2,32.5,29.91,West,270,4.0,11.0,71,0.00,,,0.00,meteohub,2013-11-23 13:53:00,
2013-11-23 08:58:00,41.4,32.4,29.91,NW,315,8.0,9.0,70,0.00,,,0.00,meteohub,2013-11-23 13:58:00,
2013-11-23 09:03:00,41.0,32.4,29.91,North,0,4.0,10.0,71,0.00,,,0.00,meteohub,2013-11-23 14:03:00,
2013-11-23 09:08:00,41.4,32.4,29.91,SW,225,3.0,10.0,70,0.00,,,0.00,meteohub,2013-11-23 14:08:00,
2013-11-23 09:13:00,41.5,31.8,29.91,NW,315,8.0,10.0,68,0.00,,,0.00,meteohub,2013-11-23 14:13:00,
2013-11-23 09:18:00,41.4,32.0,29.91,West,270,5.0,7.0,69,0.00,,,0.00,meteohub,2013-11-23 14:18:00,
2013-11-23 09:23:00,41.5,31.8,29.91,North,0,4.0,11.0,68,0.00,,,0.00,meteohub,2013-11-23 14:23:00,
2013-11-23 09:28:00,42.3,32.5,29.91,NW,315,2.0,11.0,68,0.00,,,0.00,meteohub,2013-11-23 14:28:00,
2013-11-23 09:33:00,42.4,32.2,29.90,NW,315,4.0,11.0,67,0.00,,,0.00,meteohub,2013-11-23 14:33:00,
2013-11-23 09:38:00,42.6,31.6,29.90,NW,315,4.0,11.0,65,0.00,,,0.00,meteohub,2013-11-23 14:38:00,
2013-11-23 09:43:00,42.8,31.8,29.90,NW,315,4.0,6.0,65,0.00,,,0.00,meteohub,2013-11-23 14:43:00,
2013-11-23 09:49:00,42.6,31.3,29.90,North,0,7.0,8.0,64,0.00,,,0.00,meteohub,2013-11-23 14:49:00,
2013-11-23 09:54:00,42.1,30.7,29.90,NW,315,6.0,8.0,64,0.00,,,0.00,meteohub,2013-11-23 14:54:00,
2013-11-23 09:59:00,41.5,30.7,29.90,North,0,8.0,12.0,65,0.00,,,0.00,meteohub,2013-11-23 14:59:00,
2013-11-23 10:04:00,41.9,30.2,29.90,North,0,8.0,12.0,63,0.00,,,0.00,meteohub,2013-11-23 15:04:00,
2013-11-23 10:09:00,42.6,31.3,29.90,West,270,7.0,12.0,64,0.00,,,0.00,meteohub,2013-11-23 15:09:00,
2013-11-23 10:14:00,42.6,29.7,29.90,NNW,338,11.0,11.0,60,0.00,,,0.00,meteohub,2013-11-23 15:14:00,
2013-11-23 10:19:00,42.6,30.6,29.90,NW,315,5.0,11.0,62,0.00,,,0.00,meteohub,2013-11-23 15:19:00,
2013-11-23 10:24:00,42.4,30.4,29.90,NW,315,4.0,11.0,62,0.00,,,0.00,meteohub,2013-11-23 15:24:00,
2013-11-23 10:29:00,42.1,29.7,29.89,North,0,5.0,11.0,61,0.00,,,0.00,meteohub,2013-11-23 15:29:00,
2013-11-23 10:34:00,42.3,30.2,29.89,West,270,3.0,8.0,62,0.00,,,0.00,meteohub,2013-11-23 15:34:00,
2013-11-23 10:39:00,42.1,29.7,29.89,NW,315,3.0,8.0,61,0.00,,,0.00,meteohub,2013-11-23 15:39:00,
2013-11-23 10:44:00,42.8,29.8,29.89,NW,315,6.0,8.0,60,0.00,,,0.00,meteohub,2013-11-23 15:44:00,
2013-11-23 10:49:00,42.8,29.5,29.88,North,0,8.0,9.0,59,0.00,,,0.00,meteohub,2013-11-23 15:49:00,
2013-11-23 10:54:00,42.8,29.5,29.88,NW,315,7.0,13.0,59,0.00,,,0.00,meteohub,2013-11-23 15:54:00,
2013-11-23 10:59:00,43.5,29.7,29.88,North,0,6.0,13.0,58,0.00,,,0.00,meteohub,2013-11-23 15:59:00,
2013-11-23 11:04:00,44.1,29.3,29.88,SW,225,4.0,13.0,56,0.00,,,0.00,meteohub,2013-11-23 16:04:00,
2013-11-23 11:09:00,44.1,31.1,29.88,North,0,8.0,9.0,60,0.00,,,0.00,meteohub,2013-11-23 16:09:00,
2013-11-23 11:14:00,44.4,29.3,29.88,NW,315,4.0,8.0,55,0.00,,,0.00,meteohub,2013-11-23 16:14:00,
2013-11-23 11:19:00,44.2,29.5,29.87,North,0,7.0,8.0,56,0.00,,,0.00,meteohub,2013-11-23 16:19:00,
2013-11-23 11:24:00,44.8,30.9,29.87,NW,315,5.0,8.0,58,0.00,,,0.00,meteohub,2013-11-23 16:24:00,
2013-11-23 11:29:00,45.3,29.7,29.87,West,270,5.0,7.0,54,0.00,,,0.00,meteohub,2013-11-23 16:29:00,
2013-11-23 11:34:00,45.3,30.0,29.86,West,270,2.0,7.0,55,0.00,,,0.00,meteohub,2013-11-23 16:34:00,
2013-11-23 11:39:00,45.1,30.7,29.86,North,0,3.0,7.0,57,0.00,,,0.00,meteohub,2013-11-23 16:39:00,
2013-11-23 11:44:00,45.1,29.5,29.86,North,0,6.0,7.0,54,0.00,,,0.00,meteohub,2013-11-23 16:44:00,
2013-11-23 11:49:00,45.0,28.9,29.86,NW,315,4.0,7.0,53,0.00,,,0.00,meteohub,2013-11-23 16:49:00,
2013-11-23 11:54:00,44.6,28.9,29.86,North,0,4.0,7.0,54,0.00,,,0.00,meteohub,2013-11-23 16:54:00,
2013-11-23 11:59:00,44.6,28.9,29.85,SE,135,6.0,6.0,54,0.00,,,0.00,meteohub,2013-11-23 16:59:00,
2013-11-23 12:04:00,44.2,28.6,29.86,North,0,4.0,6.0,54,0.00,,,0.00,meteohub,2013-11-23 17:04:00,
2013-11-23 12:09:00,44.4,29.3,29.85,WNW,293,3.0,6.0,55,0.00,,,0.00,meteohub,2013-11-23 17:09:00,
2013-11-23 12:14:00,44.4,28.8,29.85,West,270,4.0,6.0,54,0.00,,,0.00,meteohub,2013-11-23 17:14:00,
2013-11-23 12:19:00,44.8,29.7,29.85,North,0,6.0,8.0,55,0.00,,,0.00,meteohub,2013-11-23 17:19:00,
2013-11-23 12:24:00,45.3,29.1,29.85,SSW,203,4.0,9.0,53,0.00,,,0.00,meteohub,2013-11-23 17:24:00,
2013-11-23 12:29:00,45.9,29.7,29.84,SW,225,9.0,9.0,53,0.00,,,0.00,meteohub,2013-11-23 17:29:00,
2013-11-23 12:34:00,45.5,28.9,29.84,North,0,5.0,9.0,52,0.00,,,0.00,meteohub,2013-11-23 17:34:00,
2013-11-23 12:39:00,45.3,28.8,29.84,North,0,8.0,9.0,52,0.00,,,0.00,meteohub,2013-11-23 17:39:00,
2013-11-23 12:44:00,45.7,29.5,29.84,North,0,3.0,9.0,53,0.00,,,0.00,meteohub,2013-11-23 17:44:00,
2013-11-23 12:49:00,46.4,30.2,29.83,NW,315,2.0,8.0,53,0.00,,,0.00,meteohub,2013-11-23 17:49:00,
2013-11-23 12:54:00,46.6,29.5,29.83,North,0,5.0,8.0,51,0.00,,,0.00,meteohub,2013-11-23 17:54:00,
2013-11-23 12:59:00,46.9,29.3,29.83,NW,315,4.0,5.0,50,0.00,,,0.00,meteohub,2013-11-23 17:59:00,
2013-11-23 13:04:00,46.6,29.5,29.83,North,0,4.0,6.0,51,0.00,,,0.00,meteohub,2013-11-23 18:04:00,
2013-11-23 13:09:00,46.8,30.0,29.83,North,0,2.0,7.0,52,0.00,,,0.00,meteohub,2013-11-23 18:09:00,
2013-11-23 13:14:00,46.4,29.7,29.82,West,270,3.0,7.0,52,0.00,,,0.00,meteohub,2013-11-23 18:14:00,
2013-11-23 13:19:00,45.3,28.2,29.82,West,270,3.0,7.0,51,0.00,,,0.00,meteohub,2013-11-23 18:19:00,
2013-11-23 13:24:00,44.4,27.0,29.82,NE,45,8.0,8.0,50,0.00,,,0.00,meteohub,2013-11-23 18:24:00,
2013-11-23 13:29:00,44.2,27.7,29.82,ENE,68,2.0,8.0,52,0.00,,,0.00,meteohub,2013-11-23 18:29:00,
2013-11-23 13:34:00,44.1,27.1,29.81,NE,45,4.0,8.0,51,0.00,,,0.00,meteohub,2013-11-23 18:34:00,
2013-11-23 13:39:00,43.9,25.9,29.81,NW,315,2.0,8.0,49,0.00,,,0.00,meteohub,2013-11-23 18:39:00,
2013-11-23 13:44:00,43.9,26.4,29.81,West,270,3.0,7.0,50,0.00,,,0.00,meteohub,2013-11-23 18:44:00,
2013-11-23 13:49:00,43.5,26.1,29.81,North,0,4.0,7.0,50,0.00,,,0.00,meteohub,2013-11-23 18:49:00,
2013-11-23 13:54:00,43.3,25.9,29.80,NW,315,3.0,7.0,50,0.00,,,0.00,meteohub,2013-11-23 18:54:00,
2013-11-23 13:59:00,43.3,25.9,29.80,SW,225,4.0,8.0,50,0.00,,,0.00,meteohub,2013-11-23 18:59:00,
2013-11-23 14:04:00,43.3,26.4,29.80,NW,315,5.0,8.0,51,0.00,,,0.00,meteohub,2013-11-23 19:04:00,
2013-11-23 14:09:00,43.3,24.4,29.81,NW,315,9.0,9.0,47,0.00,,,0.00,meteohub,2013-11-23 19:09:00,
2013-11-23 14:14:00,43.5,24.1,29.80,NW,315,4.0,5.0,46,0.00,,,0.00,meteohub,2013-11-23 19:14:00,
2013-11-23 14:19:00,43.5,24.1,29.81,NW,315,2.0,10.0,46,0.00,,,0.00,meteohub,2013-11-23 19:19:00,
2013-11-23 14:24:00,43.5,24.1,29.81,North,0,4.0,10.0,46,0.00,,,0.00,meteohub,2013-11-23 19:24:00,
2013-11-23 14:29:00,43.2,24.3,29.81,NW,315,2.0,7.0,47,0.00,,,0.00,meteohub,2013-11-23 19:29:00,
2013-11-23 14:34:00,43.0,24.6,29.81,West,270,1.0,7.0,48,0.00,,,0.00,meteohub,2013-11-23 19:34:00,
2013-11-23 14:39:00,42.8,24.4,29.81,NW,315,3.0,7.0,48,0.00,,,0.00,meteohub,2013-11-23 19:39:00,
2013-11-23 14:44:00,42.6,23.7,29.80,North,0,5.0,8.0,47,0.00,,,0.00,meteohub,2013-11-23 19:44:00,
2013-11-23 14:50:00,42.4,23.7,29.80,NNE,23,7.0,9.0,47,0.00,,,0.00,meteohub,2013-11-23 19:50:00,
2013-11-23 14:55:00,42.3,23.5,29.81,NW,315,6.0,9.0,47,0.00,,,0.00,meteohub,2013-11-23 19:55:00,
2013-11-23 15:00:00,42.3,24.4,29.81,East,90,0.0,8.0,49,0.00,,,0.00,meteohub,2013-11-23 20:00:00,
2013-11-23 15:05:00,42.3,24.4,29.81,SW,225,2.0,8.0,49,0.00,,,0.00,meteohub,2013-11-23 20:05:00,
2013-11-23 15:10:00,42.1,24.8,29.81,NW,315,3.0,8.0,50,0.00,,,0.00,meteohub,2013-11-23 20:10:00,
2013-11-23 15:15:00,42.1,24.8,29.81,South,180,3.0,4.0,50,0.00,,,0.00,meteohub,2013-11-23 20:15:00,
2013-11-23 15:20:00,41.9,24.6,29.81,West,270,2.0,5.0,50,0.00,,,0.00,meteohub,2013-11-23 20:20:00,
2013-11-23 15:25:00,41.7,25.0,29.81,SW,225,4.0,5.0,51,0.00,,,0.00,meteohub,2013-11-23 20:25:00,
2013-11-23 15:30:00,41.4,23.7,29.81,North,0,7.0,7.0,49,0.00,,,0.00,meteohub,2013-11-23 20:30:00,
2013-11-23 15:35:00,41.2,24.4,29.80,North,0,3.0,7.0,51,0.00,,,0.00,meteohub,2013-11-23 20:35:00,
2013-11-23 15:40:00,41.0,23.7,29.80,North,0,8.0,9.0,50,0.00,,,0.00,meteohub,2013-11-23 20:40:00,
2013-11-23 15:45:00,40.6,24.4,29.80,NW,315,4.0,9.0,52,0.00,,,0.00,meteohub,2013-11-23 20:45:00,
2013-11-23 15:50:00,40.5,24.3,29.81,NW,315,4.0,9.0,52,0.00,,,0.00,meteohub,2013-11-23 20:50:00,
2013-11-23 15:55:00,40.1,24.8,29.81,North,0,2.0,9.0,54,0.00,,,0.00,meteohub,2013-11-23 20:55:00,
2013-11-23 16:00:00,39.9,25.5,29.80,NW,315,3.0,9.0,56,0.00,,,0.00,meteohub,2013-11-23 21:00:00,
2013-11-23 16:05:00,39.7,25.0,29.80,SW,225,3.0,9.0,55,0.00,,,0.00,meteohub,2013-11-23 21:05:00,
2013-11-23 16:10:00,39.6,25.2,29.79,NW,315,2.0,7.0,56,0.00,,,0.00,meteohub,2013-11-23 21:10:00,
2013-11-23 16:15:00,39.4,25.3,29.79,NE,45,2.0,7.0,57,0.00,,,0.00,meteohub,2013-11-23 21:15:00,
2013-11-23 16:20:00,39.2,25.7,29.79,NW,315,2.0,7.0,58,0.00,,,0.00,meteohub,2013-11-23 21:20:00,
2013-11-23 16:25:00,39.0,25.9,29.79,West,270,1.0,4.0,59,0.00,,,0.00,meteohub,2013-11-23 21:25:00,
2013-11-23 16:30:00,38.7,25.2,29.79,West,270,4.0,4.0,58,0.00,,,0.00,meteohub,2013-11-23 21:30:00,
2013-11-23 16:35:00,38.5,25.3,29.79,West,270,1.0,4.0,59,0.00,,,0.00,meteohub,2013-11-23 21:35:00,
2013-11-23 16:40:00,38.5,25.3,29.79,North,0,2.0,4.0,59,0.00,,,0.00,meteohub,2013-11-23 21:40:00,
2013-11-23 16:45:00,38.3,24.8,29.80,NW,315,1.0,4.0,58,0.00,,,0.00,meteohub,2013-11-23 21:45:00,
2013-11-23 16:50:00,38.1,24.6,29.80,West,270,0.0,4.0,58,0.00,,,0.00,meteohub,2013-11-23 21:50:00,
2013-11-23 16:55:00,37.8,24.8,29.79,West,270,0.0,4.0,59,0.00,,,0.00,meteohub,2013-11-23 21:55:00,
2013-11-23 17:00:00,37.4,24.4,29.79,West,270,0.0,2.0,59,0.00,,,0.00,meteohub,2013-11-23 22:00:00,
2013-11-23 17:05:00,37.2,25.3,29.79,SW,225,0.0,1.0,62,0.00,,,0.00,meteohub,2013-11-23 22:05:00,
2013-11-23 17:10:00,37.0,24.8,29.79,South,180,1.0,1.0,61,0.00,,,0.00,meteohub,2013-11-23 22:10:00,
2013-11-23 17:15:00,36.9,25.0,29.79,South,180,0.0,1.0,62,0.00,,,0.00,meteohub,2013-11-23 22:15:00,
2013-11-23 17:20:00,36.9,25.0,29.79,SW,225,0.0,2.0,62,0.00,,,0.00,meteohub,2013-11-23 22:20:00,
2013-11-23 17:25:00,36.9,25.0,29.79,SW,225,0.0,2.0,62,0.00,,,0.00,meteohub,2013-11-23 22:25:00,
2013-11-23 17:30:00,36.7,25.3,29.79,SW,225,0.0,2.0,63,0.00,,,0.00,meteohub,2013-11-23 22:30:00,
2013-11-23 17:35:00,36.5,24.8,29.79,SW,225,0.0,1.0,62,0.00,,,0.00,meteohub,2013-11-23 22:35:00,
2013-11-23 17:40:00,36.5,25.2,29.80,SW,225,0.0,0.0,63,0.00,,,0.00,meteohub,2013-11-23 22:40:00,
2013-11-23 17:45:00,36.3,25.0,29.79,West,270,0.0,0.0,63,0.00,,,0.00,meteohub,2013-11-23 22:45:00,
2013-11-23 17:50:00,36.5,26.6,29.79,South,180,0.0,0.0,67,0.00,,,0.00,meteohub,2013-11-23 22:50:00,
2013-11-23 17:55:00,36.5,26.6,29.79,SE,135,0.0,0.0,67,0.00,,,0.00,meteohub,2013-11-23 22:55:00,
2013-11-23 18:00:00,36.3,26.4,29.80,South,180,0.0,0.0,67,0.00,,,0.00,meteohub,2013-11-23 23:00:00,
2013-11-23 18:05:00,36.5,26.2,29.79,South,180,1.0,1.0,66,0.00,,,0.00,meteohub,2013-11-23 23:05:00,
2013-11-23 18:09:00,36.7,26.1,29.79,NW,315,2.0,3.0,65,0.00,,,0.00,meteohub,2013-11-23 23:09:00,
2013-11-23 18:14:00,36.7,26.1,29.79,East,90,2.0,3.0,65,0.00,,,0.00,meteohub,2013-11-23 23:14:00,
2013-11-23 18:19:00,36.9,26.2,29.79,NW,315,1.0,3.0,65,0.00,,,0.00,meteohub,2013-11-23 23:19:00,
2013-11-23 18:24:00,37.0,26.4,29.79,NW,315,4.0,4.0,65,0.00,,,0.00,meteohub,2013-11-23 23:24:00,
2013-11-23 18:29:00,37.4,26.8,29.80,NE,45,4.0,4.0,65,0.00,,,0.00,meteohub,2013-11-23 23:29:00,
2013-11-23 18:34:00,37.6,27.3,29.80,NW,315,4.0,15.0,66,0.00,,,0.00,meteohub,2013-11-23 23:34:00,
2013-11-23 18:39:00,37.6,27.7,29.81,NE,45,4.0,15.0,67,0.00,,,0.00,meteohub,2013-11-23 23:39:00,
2013-11-23 18:44:00,37.6,28.0,29.81,North,0,5.0,7.0,68,0.00,,,0.00,meteohub,2013-11-23 23:44:00,
2013-11-23 18:49:00,37.4,29.5,29.81,NW,315,8.0,8.0,73,0.00,,,0.00,meteohub,2013-11-23 23:49:00,
2013-11-23 18:54:00,37.0,30.6,29.81,South,180,3.0,10.0,77,0.00,,,0.00,meteohub,2013-11-23 23:54:00,
2013-11-23 18:59:00,36.5,31.3,29.81,SW,225,2.0,10.0,81,0.00,,,0.00,meteohub,2013-11-23 23:59:00,
2013-11-23 19:04:00,36.0,31.3,29.81,NW,315,5.0,10.0,83,0.00,,,0.00,meteohub,2013-11-24 00:04:00,
2013-11-23 19:09:00,35.6,31.8,29.81,South,180,4.0,8.0,86,0.00,,,0.00,meteohub,2013-11-24 00:09:00,
2013-11-23 19:14:00,35.2,31.8,29.81,North,0,2.0,5.0,87,0.00,,,0.00,meteohub,2013-11-24 00:14:00,
2013-11-23 19:19:00,35.2,32.0,29.81,North,0,3.0,5.0,88,0.00,,,0.00,meteohub,2013-11-24 00:19:00,
2013-11-23 19:24:00,35.1,32.2,29.82,North,0,4.0,4.0,89,0.00,,,0.00,meteohub,2013-11-24 00:24:00,
2013-11-23 19:29:00,34.9,33.1,29.82,North,0,9.0,9.0,93,0.00,,,0.00,meteohub,2013-11-24 00:29:00,
2013-11-23 19:34:00,34.5,32.9,29.82,WNW,293,7.0,9.0,94,0.00,,,0.00,meteohub,2013-11-24 00:34:00,
2013-11-23 19:39:00,34.2,31.5,29.82,SW,225,4.0,9.0,90,0.00,,,0.00,meteohub,2013-11-24 00:39:00,
2013-11-23 19:44:00,33.8,30.9,29.82,West,270,2.0,9.0,89,0.00,,,0.00,meteohub,2013-11-24 00:44:00,
2013-11-23 19:49:00,33.4,30.7,29.82,West,270,2.0,7.0,90,0.00,,,0.00,meteohub,2013-11-24 00:49:00,
2013-11-23 19:54:00,33.1,30.4,29.82,West,270,2.0,6.0,90,0.00,,,0.00,meteohub,2013-11-24 00:54:00,
2013-11-23 19:59:00,32.9,30.6,29.82,NE,45,4.0,5.0,91,0.00,,,0.00,meteohub,2013-11-24 00:59:00,
2013-11-23 20:04:00,32.7,30.4,29.82,North,0,3.0,5.0,91,0.00,,,0.00,meteohub,2013-11-24 01:04:00,
2013-11-23 20:09:00,32.5,30.0,29.81,NW,315,2.0,5.0,90,0.00,,,0.00,meteohub,2013-11-24 01:09:00,
2013-11-23 20:14:00,32.4,29.8,29.81,North,0,4.0,4.0,90,0.00,,,0.00,meteohub,2013-11-24 01:14:00,
2013-11-23 20:19:00,32.4,29.1,29.82,NW,315,3.0,4.0,88,0.00,,,0.00,meteohub,2013-11-24 01:19:00,
2013-11-23 20:24:00,32.5,28.8,29.81,SE,135,1.0,4.0,86,0.00,,,0.00,meteohub,2013-11-24 01:24:00,
2013-11-23 20:29:00,32.5,28.2,29.82,NW,315,2.0,5.0,84,0.00,,,0.00,meteohub,2013-11-24 01:29:00,
2013-11-23 20:34:00,32.5,28.2,29.82,West,270,2.0,6.0,84,0.00,,,0.00,meteohub,2013-11-24 01:34:00,
2013-11-23 20:39:00,32.5,28.0,29.82,NNW,338,3.0,8.0,83,0.00,,,0.00,meteohub,2013-11-24 01:39:00,
2013-11-23 20:44:00,32.5,27.3,29.82,North,0,3.0,8.0,81,0.00,,,0.00,meteohub,2013-11-24 01:44:00,
2013-11-23 20:49:00,32.5,27.3,29.83,West,270,2.0,8.0,81,0.00,,,0.00,meteohub,2013-11-24 01:49:00,
2013-11-23 20:54:00,32.5,27.3,29.83,NW,315,6.0,6.0,81,0.00,,,0.00,meteohub,2013-11-24 01:54:00,
2013-11-23 20:59:00,32.5,27.3,29.83,NNW,338,2.0,6.0,81,0.00,,,0.00,meteohub,2013-11-24 01:59:00,
2013-11-23 21:04:00,32.5,27.3,29.83,North,0,4.0,6.0,81,0.00,,,0.00,meteohub,2013-11-24 02:04:00,
2013-11-23 21:09:00,32.5,26.1,29.83,West,270,3.0,7.0,77,0.00,,,0.00,meteohub,2013-11-24 02:09:00,
2013-11-23 21:14:00,32.5,25.2,29.83,North,0,4.0,7.0,74,0.00,,,0.00,meteohub,2013-11-24 02:14:00,
2013-11-23 21:19:00,32.4,24.6,29.83,South,180,3.0,10.0,73,0.00,,,0.00,meteohub,2013-11-24 02:19:00,
2013-11-23 21:24:00,32.2,24.4,29.84,SW,225,2.0,10.0,73,0.00,,,0.00,meteohub,2013-11-24 02:24:00,
2013-11-23 21:29:00,32.0,22.6,29.83,North,0,4.0,10.0,68,0.00,,,0.00,meteohub,2013-11-24 02:29:00,
2013-11-23 21:34:00,32.0,21.2,29.83,North,0,9.0,9.0,64,0.00,,,0.00,meteohub,2013-11-24 02:34:00,
2013-11-23 21:39:00,31.8,20.3,29.83,NE,45,5.0,9.0,62,0.00,,,0.00,meteohub,2013-11-24 02:39:00,
2013-11-23 21:44:00,31.6,20.5,29.84,SE,135,2.0,9.0,63,0.00,,,0.00,meteohub,2013-11-24 02:44:00,
2013-11-23 21:49:00,31.5,19.6,29.84,NE,45,4.0,9.0,61,0.00,,,0.00,meteohub,2013-11-24 02:49:00,
2013-11-23 21:54:00,31.3,19.0,29.83,NE,45,5.0,5.0,60,0.00,,,0.00,meteohub,2013-11-24 02:54:00,
2013-11-23 21:59:00,31.1,19.2,29.83,NW,315,2.0,9.0,61,0.00,,,0.00,meteohub,2013-11-24 02:59:00,
2013-11-23 22:04:00,30.9,19.0,29.83,East,90,4.0,9.0,61,0.00,,,0.00,meteohub,2013-11-24 03:04:00,
2013-11-23 22:09:00,30.9,18.3,29.84,NW,315,8.0,11.0,59,0.00,,,0.00,meteohub,2013-11-24 03:09:00,
2013-11-23 22:14:00,30.9,18.3,29.84,North,0,3.0,11.0,59,0.00,,,0.00,meteohub,2013-11-24 03:14:00,
2013-11-23 22:19:00,30.7,17.8,29.84,West,270,4.0,11.0,58,0.00,,,0.00,meteohub,2013-11-24 03:19:00,
2013-11-23 22:24:00,30.7,17.8,29.84,West,270,4.0,11.0,58,0.00,,,0.00,meteohub,2013-11-24 03:24:00,
2013-11-23 22:29:00,30.6,17.1,29.84,SW,225,6.0,11.0,57,0.00,,,0.00,meteohub,2013-11-24 03:29:00,
2013-11-23 22:34:00,30.6,17.6,29.84,NW,315,4.0,11.0,58,0.00,,,0.00,meteohub,2013-11-24 03:34:00,
2013-11-23 22:39:00,30.6,17.6,29.84,NW,315,4.0,11.0,58,0.00,,,0.00,meteohub,2013-11-24 03:39:00,
2013-11-23 22:44:00,30.0,17.8,29.84,North,0,2.0,7.0,60,0.00,,,0.00,meteohub,2013-11-24 03:44:00,
2013-11-23 22:49:00,30.0,17.1,29.84,North,0,10.0,10.0,58,0.00,,,0.00,meteohub,2013-11-24 03:49:00,
2013-11-23 22:55:00,29.8,16.9,29.83,North,0,3.0,10.0,58,0.00,,,0.00,meteohub,2013-11-24 03:55:00,
2013-11-23 23:00:00,29.7,17.1,29.84,SW,225,3.0,10.0,59,0.00,,,0.00,meteohub,2013-11-24 04:00:00,
2013-11-23 23:05:00,29.7,17.1,29.84,SW,225,3.0,10.0,59,0.00,,,0.00,meteohub,2013-11-24 04:05:00,
2013-11-23 23:10:00,29.3,17.1,29.84,West,270,4.0,4.0,60,0.00,,,0.00,meteohub,2013-11-24 04:10:00,
2013-11-23 23:15:00,29.3,16.3,29.85,NW,315,3.0,4.0,58,0.00,,,0.00,meteohub,2013-11-24 04:15:00,
2013-11-23 23:20:00,29.1,16.5,29.85,East,90,6.0,8.0,59,0.00,,,0.00,meteohub,2013-11-24 04:20:00,
2013-11-23 23:25:00,28.9,16.9,29.86,West,270,7.0,8.0,60,0.00,,,0.00,meteohub,2013-11-24 04:25:00,
2013-11-23 23:30:00,28.8,16.2,29.85,West,270,4.0,8.0,59,0.00,,,0.00,meteohub,2013-11-24 04:30:00,
2013-11-23 23:35:00,28.6,15.6,29.86,NE,45,9.0,9.0,58,0.00,,,0.00,meteohub,2013-11-24 04:35:00,
2013-11-23 23:40:00,28.6,15.3,29.85,SW,225,4.0,17.0,57,0.00,,,0.00,meteohub,2013-11-24 04:40:00,
2013-11-23 23:45:00,28.2,14.5,29.85,South,180,8.0,17.0,56,0.00,,,0.00,meteohub,2013-11-24 04:45:00,
2013-11-23 23:50:00,28.2,14.5,29.85,North,0,8.0,17.0,56,0.00,,,0.00,meteohub,2013-11-24 04:50:00,
2013-11-23 23:55:00,28.2,14.9,29.86,NW,315,8.0,17.0,57,0.00,,,0.00,meteohub,2013-11-24 04:55:00,